עמוד ראשי
תמונות לווין תחזית 15-יוםאקליםתחזית ים סופות טרופיות ברקים שדות תעופהשאלות נפוצות עלון אודות
מזג אוויר : אירופה אפריקה אמריקה הצפונית אמריקה הדרומית אסיה אוסטרליה-אוקיאניה אחרים
שפות איש קשר

זלצבורג, אוסטריה

קו רוחב: 47-48N, קו אורך: 013-00E, גובה: 430מטר


METAR: LOWS 220550Z 14004KT CAVOK M01/M02 Q1027 NOSIG
TAF: LOWS 220515Z 2206/2306 15005KT CAVOK TX07/2212Z TNM02/2206Z TEMPO 2206/2216 29012G22KT TEMPO 2218/2306 VRB02KT 1200 BCFG NSC

זמן: 07:18 (06:18 UTC)

תצפית מזג אוויר נוכחית

הדו"ח נערך לפני 28דקות, בשעה 05:50 UTC
רוח 4קשר מכיוון דרום-מזרח
טמפרטורת -1°C
לחות 93%
לחץ 1027 hPa
ראות 10 קילומטר או יותר
ללא עננים שבסיסם נמוך מ 1500 רגל או קומולונימבוס

שנה יחידות

תחזית

הדו"ח נערך לפני 1 שעות ו 3דקות, בשעה 05:15 UTC
תחזית בתוקף מ 22 ב 06 UTC עד 23 ב 06 UTC
רוח 5קשר מכיוון דרום/דרום-מזרח
ראות 10 קילומטר או יותר
ללא עננים שבסיסם נמוך מ 1500 רגל או קומולונימבוס
זמנית מ -
22 ב 06 UTC עד 22 ב 16 UTC
רוח 12קשר מכיוון מערב/צפון-מערב עם משבים עד 22קשר
זמנית מ -
22 ב 18 UTC עד 23 ב 06 UTC
רוח 2קשר עם כיוונים משתנים
ראות: 1200מטר
קרעי ערפל
המידע באתר זה מותנה של תניית פטור
מזג אוויר : אירופה אפריקה אמריקה הצפונית אמריקה הדרומית אסיה אוסטרליה-אוקיאניה אחרים
תמונות לווין תחזית 15-יוםאקליםתחזית ים סופות טרופיות ברקים שדות תעופהשאלות נפוצות שפות איש קשר עלון אודות